createdAt,value
2022-12-01T00:01:34.375Z,-0.80
2022-12-01T00:04:02.770Z,-0.76
2022-12-01T00:06:30.557Z,-0.72
2022-12-01T00:09:14.000Z,-0.67
2022-12-01T00:11:43.178Z,-0.61
2022-12-01T00:14:11.092Z,-0.58
2022-12-01T00:16:40.594Z,-0.54
2022-12-01T00:19:08.755Z,-0.52
2022-12-01T00:21:36.567Z,-0.47
2022-12-01T00:24:04.362Z,-0.44
2022-12-01T00:26:32.658Z,-0.45
2022-12-01T00:29:00.524Z,-0.44
2022-12-01T00:31:28.570Z,-0.46
2022-12-01T00:33:56.399Z,-0.50
2022-12-01T00:36:24.348Z,-0.54
2022-12-01T00:38:54.934Z,-0.59
2022-12-01T00:41:24.530Z,-0.65
2022-12-01T00:43:52.526Z,-0.71
2022-12-01T00:46:20.956Z,-0.76
2022-12-01T00:48:49.983Z,-0.78
2022-12-01T00:51:17.918Z,-0.80
2022-12-01T00:53:46.008Z,-0.82
2022-12-01T00:56:14.903Z,-0.84
2022-12-01T00:58:42.628Z,-0.87
2022-12-01T01:01:10.667Z,-0.88
2022-12-01T01:03:38.759Z,-0.89
2022-12-01T01:06:10.962Z,-0.89
2022-12-01T01:08:40.525Z,-0.87
2022-12-01T01:11:09.293Z,-0.85
2022-12-01T01:13:37.843Z,-0.83
2022-12-01T01:16:14.771Z,-0.80
2022-12-01T01:18:42.614Z,-0.77
2022-12-01T01:21:13.877Z,-0.72
2022-12-01T01:23:41.946Z,-0.67
2022-12-01T01:26:14.809Z,-0.57
2022-12-01T01:28:42.887Z,-0.48
2022-12-01T01:31:14.867Z,-0.40
2022-12-01T01:33:43.030Z,-0.32
2022-12-01T01:36:11.044Z,-0.25
2022-12-01T01:38:38.922Z,-0.16
2022-12-01T01:41:07.215Z,-0.11
2022-12-01T01:43:45.300Z,-0.06
2022-12-01T01:46:24.895Z,-0.05
2022-12-01T01:49:03.091Z,-0.05
2022-12-01T01:51:40.456Z,-0.05
2022-12-01T01:54:16.397Z,-0.03
2022-12-01T01:56:45.167Z,-0.01
2022-12-01T01:59:22.518Z,-0.02
2022-12-01T02:01:57.616Z,-0.03
2022-12-01T02:04:27.624Z,-0.05
2022-12-01T02:06:55.538Z,-0.09
2022-12-01T02:09:23.364Z,-0.13
2022-12-01T02:12:16.403Z,-0.18
2022-12-01T02:15:08.819Z,-0.25
2022-12-01T02:17:51.917Z,-0.32
2022-12-01T02:20:49.184Z,-0.40
2022-12-01T02:23:47.241Z,-0.49
2022-12-01T02:26:33.725Z,-0.59
2022-12-01T02:29:29.604Z,-0.69
2022-12-01T02:32:12.400Z,-0.78
2022-12-01T02:35:09.925Z,-0.88
2022-12-01T02:37:47.923Z,-0.98
2022-12-01T02:40:24.947Z,-1.07
2022-12-01T02:43:05.241Z,-1.13
2022-12-01T02:45:43.260Z,-1.18
2022-12-01T02:48:16.646Z,-1.22
2022-12-01T02:50:46.349Z,-1.24
2022-12-01T02:53:17.536Z,-1.24
2022-12-01T02:55:51.883Z,-1.22
2022-12-01T02:58:20.285Z,-1.18
2022-12-01T03:01:02.486Z,-1.13
2022-12-01T03:03:46.506Z,-1.05
2022-12-01T03:06:26.853Z,-0.97
2022-12-01T03:09:10.294Z,-0.89
2022-12-01T03:11:57.785Z,-0.79
2022-12-01T03:14:40.930Z,-0.71
2022-12-01T03:17:14.894Z,-0.63
2022-12-01T03:19:49.162Z,-0.56
2022-12-01T03:22:24.856Z,-0.51
2022-12-01T03:24:55.941Z,-0.50
2022-12-01T03:27:29.869Z,-0.50
2022-12-01T03:30:01.063Z,-0.49
2022-12-01T03:32:35.502Z,-0.52
2022-12-01T03:35:10.887Z,-0.54
2022-12-01T03:37:53.581Z,-0.58
2022-12-01T03:40:27.211Z,-0.64
2022-12-01T03:42:59.764Z,-0.71
2022-12-01T03:45:37.867Z,-0.77
2022-12-01T03:48:06.483Z,-0.80
2022-12-01T03:50:44.084Z,-0.87
2022-12-01T03:53:20.241Z,-0.92
2022-12-01T03:55:53.813Z,-0.97
2022-12-01T03:58:28.762Z,-1.01
2022-12-01T04:00:57.711Z,-1.05
2022-12-01T04:03:26.563Z,-1.09
2022-12-01T04:05:54.661Z,-1.14
2022-12-01T04:08:22.490Z,-1.18
2022-12-01T04:10:50.261Z,-1.22
2022-12-01T04:13:23.305Z,-1.26
2022-12-01T04:15:53.656Z,-1.30
2022-12-01T04:18:22.189Z,-1.36
2022-12-01T04:20:50.967Z,-1.40
2022-12-01T04:23:36.612Z,-1.41
2022-12-01T04:26:05.280Z,-1.42
2022-12-01T04:28:35.997Z,-1.42
2022-12-01T04:31:03.930Z,-1.43
2022-12-01T04:33:31.832Z,-1.41
2022-12-01T04:36:01.521Z,-1.39
2022-12-01T04:38:31.030Z,-1.34
2022-12-01T04:40:59.440Z,-1.31
2022-12-01T04:43:27.166Z,-1.27
2022-12-01T04:45:57.437Z,-1.25
2022-12-01T04:48:25.221Z,-1.19
2022-12-01T04:50:53.028Z,-1.17
2022-12-01T04:53:21.028Z,-1.16
2022-12-01T04:55:48.892Z,-1.17
2022-12-01T04:58:16.692Z,-1.20
2022-12-01T05:00:44.608Z,-1.23
2022-12-01T05:03:15.227Z,-1.27
2022-12-01T05:05:43.220Z,-1.33
2022-12-01T05:08:11.072Z,-1.38
2022-12-01T05:10:38.998Z,-1.42
2022-12-01T05:13:06.891Z,-1.46
2022-12-01T05:15:34.563Z,-1.52
2022-12-01T05:18:02.376Z,-1.57
2022-12-01T05:20:49.965Z,-1.62
2022-12-01T05:23:17.739Z,-1.67
2022-12-01T05:25:45.471Z,-1.72
2022-12-01T05:28:13.331Z,-1.77
2022-12-01T05:30:41.109Z,-1.81
2022-12-01T05:33:08.826Z,-1.86
2022-12-01T05:35:36.584Z,-1.89
2022-12-01T05:38:08.003Z,-1.94
2022-12-01T05:40:37.421Z,-2.00
2022-12-01T05:43:06.055Z,-2.03
2022-12-01T05:45:34.610Z,-2.07
2022-12-01T05:48:02.875Z,-2.09
2022-12-01T05:50:30.967Z,-2.12
2022-12-01T05:52:58.730Z,-2.13
2022-12-01T05:55:26.455Z,-2.13
2022-12-01T05:57:54.258Z,-2.11
2022-12-01T06:00:22.089Z,-2.07
2022-12-01T06:02:49.780Z,-2.02
2022-12-01T06:05:17.651Z,-1.95
2022-12-01T06:07:45.570Z,-1.87
2022-12-01T06:10:14.042Z,-1.79
2022-12-01T06:12:41.923Z,-1.70
2022-12-01T06:15:12.246Z,-1.61
2022-12-01T06:17:40.714Z,-1.52
2022-12-01T06:20:09.702Z,-1.43
2022-12-01T06:22:37.460Z,-1.34
2022-12-01T06:25:07.407Z,-1.25
2022-12-01T06:27:35.243Z,-1.20
2022-12-01T06:30:04.850Z,-1.14
2022-12-01T06:32:32.602Z,-1.10
2022-12-01T06:35:00.328Z,-1.07
2022-12-01T06:37:28.396Z,-1.02
2022-12-01T06:39:56.302Z,-0.95
2022-12-01T06:42:24.035Z,-0.91
2022-12-01T06:44:51.827Z,-0.89
2022-12-01T06:47:22.386Z,-0.89
2022-12-01T06:49:50.434Z,-0.88
2022-12-01T06:52:18.398Z,-0.84
2022-12-01T06:54:46.253Z,-0.81
2022-12-01T06:57:14.513Z,-0.81
2022-12-01T06:59:42.415Z,-0.80
2022-12-01T07:02:11.758Z,-0.78
2022-12-01T07:04:39.672Z,-0.77
2022-12-01T07:07:07.733Z,-0.75
2022-12-01T07:09:35.633Z,-0.71
2022-12-01T07:12:03.617Z,-0.68
2022-12-01T07:14:32.514Z,-0.65
2022-12-01T07:17:00.343Z,-0.62
2022-12-01T07:19:28.133Z,-0.60
2022-12-01T07:21:56.166Z,-0.55
2022-12-01T07:24:23.873Z,-0.51
2022-12-01T07:26:51.687Z,-0.46
2022-12-01T07:29:19.378Z,-0.39
2022-12-01T07:31:47.158Z,-0.32
2022-12-01T07:34:14.987Z,-0.27
2022-12-01T07:36:42.646Z,-0.16
2022-12-01T07:39:10.341Z,-0.07
2022-12-01T07:41:38.204Z,0.03
2022-12-01T07:44:06.035Z,0.14
2022-12-01T07:46:33.824Z,0.24
2022-12-01T07:49:01.701Z,0.34
2022-12-01T07:51:29.431Z,0.41
2022-12-01T07:54:02.782Z,0.46
2022-12-01T07:56:31.502Z,0.52
2022-12-01T07:58:59.784Z,0.59
2022-12-01T08:01:27.658Z,0.66
2022-12-01T08:03:57.675Z,0.69
2022-12-01T08:06:26.330Z,0.71
2022-12-01T08:08:54.185Z,0.73
2022-12-01T08:11:24.600Z,0.71
2022-12-01T08:13:53.689Z,0.66
2022-12-01T08:16:25.030Z,0.68
2022-12-01T08:18:53.317Z,0.71
2022-12-01T08:21:23.480Z,0.76
2022-12-01T08:23:54.695Z,0.85
2022-12-01T08:26:24.284Z,0.92
2022-12-01T08:28:52.285Z,0.98
2022-12-01T08:31:29.530Z,0.96
2022-12-01T08:33:58.131Z,0.97
2022-12-01T08:36:26.815Z,1.01
2022-12-01T08:38:56.385Z,1.00
2022-12-01T08:41:25.046Z,1.00
2022-12-01T08:43:58.299Z,0.99
2022-12-01T08:46:30.973Z,1.11
2022-12-01T08:48:59.042Z,1.23
2022-12-01T08:51:27.043Z,1.37
2022-12-01T08:53:56.634Z,1.51
2022-12-01T08:56:29.860Z,1.64
2022-12-01T08:58:58.698Z,1.77
2022-12-01T09:01:29.332Z,1.75
2022-12-01T09:04:06.482Z,1.75
2022-12-01T09:06:40.451Z,1.84
2022-12-01T09:09:13.126Z,1.95
2022-12-01T09:11:44.001Z,2.08
2022-12-01T09:14:13.388Z,2.21
2022-12-01T09:16:42.856Z,2.34
2022-12-01T09:19:13.219Z,2.49
2022-12-01T09:21:43.442Z,2.60
2022-12-01T09:24:14.877Z,2.74
2022-12-01T09:26:43.027Z,2.92
2022-12-01T09:29:13.968Z,3.08
2022-12-01T09:31:42.859Z,3.25
2022-12-01T09:34:15.528Z,3.37
2022-12-01T09:36:43.871Z,3.53
2022-12-01T09:39:14.279Z,3.55
2022-12-01T09:41:47.743Z,3.63
2022-12-01T09:44:30.857Z,3.71
2022-12-01T09:47:19.218Z,3.84
2022-12-01T09:50:02.404Z,4.00
2022-12-01T09:52:38.716Z,4.24
2022-12-01T09:55:14.293Z,4.42
2022-12-01T09:57:48.019Z,4.59
2022-12-01T10:00:20.527Z,4.66
2022-12-01T10:03:12.333Z,4.81
2022-12-01T10:06:24.663Z,4.98
2022-12-01T10:08:41.743Z,5.19
2022-12-01T10:11:20.526Z,5.28
2022-12-01T10:13:48.581Z,5.41
2022-12-01T10:16:26.414Z,5.59
2022-12-01T10:19:05.991Z,5.79
2022-12-01T10:21:50.980Z,6.04
2022-12-01T10:24:38.353Z,6.36
2022-12-01T10:27:28.165Z,6.63
2022-12-01T10:30:05.686Z,6.82
2022-12-01T10:32:48.006Z,7.03
2022-12-01T10:35:18.904Z,7.20
2022-12-01T10:37:54.718Z,7.43
2022-12-01T10:40:23.265Z,7.76
2022-12-01T10:42:51.392Z,7.99
2022-12-01T10:45:35.346Z,8.19
2022-12-01T10:48:15.768Z,8.22
2022-12-01T10:50:50.147Z,8.44
2022-12-01T10:53:34.210Z,8.18
2022-12-01T10:56:08.580Z,8.11
2022-12-01T10:58:49.226Z,8.44
2022-12-01T11:01:22.946Z,8.71
2022-12-01T11:03:57.444Z,8.74
2022-12-01T11:06:28.569Z,8.89
2022-12-01T11:09:00.196Z,8.89
2022-12-01T11:11:34.200Z,8.83
2022-12-01T11:14:16.283Z,8.70
2022-12-01T11:16:46.849Z,8.67
2022-12-01T11:19:32.648Z,8.64
2022-12-01T11:22:03.273Z,8.70
2022-12-01T11:24:58.033Z,8.86
2022-12-01T11:27:30.303Z,9.11
2022-12-01T11:30:20.279Z,9.45
2022-12-01T11:32:59.701Z,9.82
2022-12-01T11:35:31.955Z,10.08
2022-12-01T11:40:54.541Z,10.66
2022-12-01T11:43:28.140Z,10.49
2022-12-01T11:45:58.889Z,10.56
2022-12-01T11:48:29.928Z,10.94
2022-12-01T11:51:37.738Z,11.47
2022-12-01T11:54:24.625Z,12.04
2022-12-01T11:57:25.431Z,12.03
2022-12-01T11:59:41.926Z,12.23
2022-12-01T12:02:48.241Z,12.68
2022-12-01T12:05:37.373Z,12.98
2022-12-01T12:08:29.059Z,12.74
2022-12-01T12:11:15.708Z,12.75
2022-12-01T12:14:10.433Z,12.75
2022-12-01T12:17:08.751Z,12.76
2022-12-01T12:20:07.204Z,12.31
2022-12-01T12:23:08.144Z,12.19
2022-12-01T12:26:00.993Z,12.34
2022-12-01T12:28:50.103Z,12.09
2022-12-01T12:31:39.670Z,12.04
2022-12-01T12:34:31.914Z,12.00
2022-12-01T12:37:22.990Z,12.11
2022-12-01T12:40:26.710Z,11.66
2022-12-01T12:43:19.402Z,11.51
2022-12-01T12:46:19.665Z,11.48
2022-12-01T12:49:20.233Z,11.56
2022-12-01T12:51:58.433Z,11.55
2022-12-01T12:54:35.916Z,11.30
2022-12-01T12:57:12.058Z,11.13
2022-12-01T12:59:48.814Z,11.24
2022-12-01T13:02:27.174Z,11.48
2022-12-01T13:05:20.720Z,11.75
2022-12-01T13:08:20.315Z,11.78
2022-12-01T13:11:03.233Z,11.70
2022-12-01T13:13:41.172Z,11.51
2022-12-01T13:16:15.883Z,11.02
2022-12-01T13:18:56.480Z,10.49
2022-12-01T13:21:24.387Z,9.91
2022-12-01T13:23:52.780Z,9.59
2022-12-01T13:26:22.117Z,9.27
2022-12-01T13:28:53.791Z,9.37
2022-12-01T13:31:22.490Z,9.22
2022-12-01T13:34:03.620Z,8.97
2022-12-01T13:36:49.187Z,8.70
2022-12-01T13:39:24.656Z,8.65
2022-12-01T13:42:04.998Z,8.32
2022-12-01T13:44:40.292Z,8.11
2022-12-01T13:47:37.032Z,7.84
2022-12-01T13:50:43.733Z,7.74
2022-12-01T13:53:33.089Z,7.48
2022-12-01T13:56:25.689Z,7.25
2022-12-01T13:58:54.864Z,7.08
2022-12-01T14:01:44.589Z,6.81
2022-12-01T14:04:32.485Z,6.61
2022-12-01T14:07:19.315Z,6.27
2022-12-01T14:09:51.150Z,5.98
2022-12-01T14:12:24.057Z,5.85
2022-12-01T14:14:57.293Z,5.68
2022-12-01T14:17:31.458Z,5.56
2022-12-01T14:20:21.513Z,5.46
2022-12-01T14:23:13.209Z,5.39
2022-12-01T14:25:42.683Z,5.35
2022-12-01T14:28:18.170Z,5.28
2022-12-01T14:31:06.091Z,5.22
2022-12-01T14:33:49.165Z,5.16
2022-12-01T14:36:34.762Z,5.07
2022-12-01T14:39:12.556Z,4.98
2022-12-01T14:41:48.799Z,4.83
2022-12-01T14:44:26.686Z,4.72
2022-12-01T14:47:01.880Z,4.48
2022-12-01T14:49:38.176Z,4.35
2022-12-01T14:52:13.941Z,4.26
2022-12-01T14:54:46.668Z,4.14
2022-12-01T14:57:18.330Z,4.06
2022-12-01T14:59:46.235Z,4.02
2022-12-01T15:02:14.772Z,3.97
2022-12-01T15:05:14.542Z,3.90
2022-12-01T15:07:46.437Z,3.88
2022-12-01T15:10:21.579Z,3.82
2022-12-01T15:12:50.505Z,3.78
2022-12-01T15:15:24.372Z,3.73
2022-12-01T15:17:55.662Z,3.64
2022-12-01T15:20:37.491Z,3.61
2022-12-01T15:23:13.752Z,3.57
2022-12-01T15:25:44.060Z,3.51
2022-12-01T15:28:16.807Z,3.49
2022-12-01T15:30:48.183Z,3.47
2022-12-01T15:33:28.401Z,3.43
2022-12-01T15:36:00.685Z,3.41
2022-12-01T15:38:33.400Z,3.39
2022-12-01T15:43:56.140Z,3.36
2022-12-01T15:46:30.790Z,3.33
2022-12-01T15:49:09.146Z,3.31
2022-12-01T15:51:37.066Z,3.29
2022-12-01T15:54:05.230Z,3.29
2022-12-01T15:56:36.472Z,3.29
2022-12-01T15:59:27.560Z,3.29
2022-12-01T16:01:56.947Z,3.30
2022-12-01T16:04:28.514Z,3.31
2022-12-01T16:07:01.968Z,3.32
2022-12-01T16:09:36.766Z,3.34
2022-12-01T16:12:18.533Z,3.36
2022-12-01T16:15:14.005Z,3.35
2022-12-01T16:17:45.960Z,3.36
2022-12-01T16:20:18.333Z,3.37
2022-12-01T16:22:48.984Z,3.38
2022-12-01T16:25:28.683Z,3.41
2022-12-01T16:27:57.394Z,3.43
2022-12-01T16:30:30.251Z,3.43
2022-12-01T16:33:04.755Z,3.45
2022-12-01T16:35:34.085Z,3.48
2022-12-01T16:38:15.709Z,3.52
2022-12-01T16:40:43.794Z,3.55
2022-12-01T16:43:16.264Z,3.56
2022-12-01T16:45:46.008Z,3.58
2022-12-01T16:48:13.752Z,3.59
2022-12-01T16:50:41.508Z,3.59
2022-12-01T16:53:10.500Z,3.60
2022-12-01T16:55:44.205Z,3.60
2022-12-01T16:58:12.253Z,3.62
2022-12-01T17:00:40.145Z,3.64
2022-12-01T17:03:11.799Z,3.65
2022-12-01T17:05:40.283Z,3.66
2022-12-01T17:08:08.612Z,3.68
2022-12-01T17:10:40.962Z,3.70
2022-12-01T17:13:08.938Z,3.71
2022-12-01T17:15:42.120Z,3.72
2022-12-01T17:18:10.283Z,3.72
2022-12-01T17:20:38.137Z,3.68
2022-12-01T17:23:06.187Z,3.65
2022-12-01T17:25:34.780Z,3.63
2022-12-01T17:28:02.577Z,3.60
2022-12-01T17:30:30.525Z,3.54
2022-12-01T17:32:58.489Z,3.53
2022-12-01T17:35:26.362Z,3.50
2022-12-01T17:37:54.236Z,3.48
2022-12-01T17:40:22.000Z,3.49
2022-12-01T17:42:51.132Z,3.50
2022-12-01T17:45:19.591Z,3.51
2022-12-01T17:47:47.542Z,3.51
2022-12-01T17:50:15.931Z,3.52
2022-12-01T17:52:43.855Z,3.52
2022-12-01T17:55:11.614Z,3.51
2022-12-01T17:57:39.428Z,3.51
2022-12-01T18:00:07.907Z,3.47
2022-12-01T18:02:36.724Z,3.44
2022-12-01T18:05:05.022Z,3.43
2022-12-01T18:07:33.015Z,3.40
2022-12-01T18:10:01.098Z,3.39
2022-12-01T18:12:28.951Z,3.37
2022-12-01T18:14:56.854Z,3.35
2022-12-01T18:17:26.163Z,3.34
2022-12-01T18:19:55.744Z,3.33
2022-12-01T18:22:24.553Z,3.34
2022-12-01T18:24:52.993Z,3.35
2022-12-01T18:27:20.997Z,3.39
2022-12-01T18:29:48.789Z,3.44
2022-12-01T18:32:17.010Z,3.48
2022-12-01T18:34:45.067Z,3.53
2022-12-01T18:37:16.214Z,3.59
2022-12-01T18:39:45.445Z,3.65
2022-12-01T18:42:14.471Z,3.69
2022-12-01T18:44:44.286Z,3.71
2022-12-01T18:47:14.131Z,3.70
2022-12-01T18:49:42.276Z,3.69
2022-12-01T18:52:13.599Z,3.68
2022-12-01T18:54:44.290Z,3.66
2022-12-01T18:57:14.729Z,3.64
2022-12-01T18:59:42.944Z,3.61
2022-12-01T19:02:10.855Z,3.61
2022-12-01T19:04:40.472Z,3.61
2022-12-01T19:07:08.294Z,3.60
2022-12-01T19:09:36.120Z,3.58
2022-12-01T19:12:04.833Z,3.56
2022-12-01T19:14:35.456Z,3.54
2022-12-01T19:17:03.758Z,3.54
2022-12-01T19:19:37.372Z,3.54
2022-12-01T19:22:05.987Z,3.52
2022-12-01T19:24:33.972Z,3.52
2022-12-01T19:27:03.097Z,3.50
2022-12-01T19:29:30.877Z,3.48
2022-12-01T19:31:58.889Z,3.44
2022-12-01T19:34:26.711Z,3.44
2022-12-01T19:36:59.639Z,3.43
2022-12-01T19:39:27.984Z,3.41
2022-12-01T19:41:58.388Z,3.40
2022-12-01T19:44:27.609Z,3.38
2022-12-01T19:46:55.598Z,3.34
2022-12-01T19:49:23.550Z,3.30
2022-12-01T19:51:51.490Z,3.27
2022-12-01T19:54:20.332Z,3.24
2022-12-01T19:56:49.144Z,3.21
2022-12-01T19:59:16.920Z,3.19
2022-12-01T20:01:44.972Z,3.17
2022-12-01T20:04:13.538Z,3.15
2022-12-01T20:06:41.332Z,3.11
2022-12-01T20:09:15.955Z,3.11
2022-12-01T20:11:59.029Z,3.11
2022-12-01T20:14:30.152Z,3.13
2022-12-01T20:16:58.134Z,3.17
2022-12-01T20:19:26.019Z,3.20
2022-12-01T20:21:57.383Z,3.25
2022-12-01T20:24:25.475Z,3.29
2022-12-01T20:26:58.964Z,3.29
2022-12-01T20:29:29.851Z,3.33
2022-12-01T20:32:01.588Z,3.41
2022-12-01T20:34:36.278Z,3.50
2022-12-01T20:37:05.349Z,3.55
2022-12-01T20:39:35.338Z,3.56
2022-12-01T20:42:05.706Z,3.59
2022-12-01T20:44:33.605Z,3.62
2022-12-01T20:47:01.717Z,3.64
2022-12-01T20:49:29.623Z,3.61
2022-12-01T20:51:57.639Z,3.58
2022-12-01T20:54:28.760Z,3.56
2022-12-01T20:56:58.287Z,3.54
2022-12-01T20:59:26.991Z,3.50
2022-12-01T21:01:54.904Z,3.47
2022-12-01T21:04:22.767Z,3.40
2022-12-01T21:06:50.531Z,3.35
2022-12-01T21:09:18.408Z,3.29
2022-12-01T21:12:02.398Z,3.25
2022-12-01T21:14:37.474Z,3.20
2022-12-01T21:17:33.263Z,3.17
2022-12-01T21:20:17.922Z,3.14
2022-12-01T21:22:46.168Z,3.12
2022-12-01T21:25:18.969Z,3.09
2022-12-01T21:27:47.500Z,3.07
2022-12-01T21:30:19.137Z,3.06
2022-12-01T21:32:48.350Z,3.06
2022-12-01T21:35:21.664Z,3.07
2022-12-01T21:37:51.271Z,3.09
2022-12-01T21:40:23.505Z,3.08
2022-12-01T21:42:51.541Z,3.09
2022-12-01T21:45:26.085Z,3.09
2022-12-01T21:48:00.132Z,3.10
2022-12-01T21:50:28.012Z,3.12
2022-12-01T21:52:55.814Z,3.15
2022-12-01T21:55:33.160Z,3.19
2022-12-01T21:58:01.277Z,3.23
2022-12-01T22:00:33.544Z,3.29
2022-12-01T22:03:29.673Z,3.33
2022-12-01T22:06:32.966Z,3.37
2022-12-01T22:09:12.582Z,3.42
2022-12-01T22:11:43.337Z,3.44
2022-12-01T22:14:16.018Z,3.45
2022-12-01T22:16:54.479Z,3.45
2022-12-01T22:19:29.117Z,3.47
2022-12-01T22:22:29.087Z,3.46
2022-12-01T22:25:01.788Z,3.41
2022-12-01T22:27:35.573Z,3.33
2022-12-01T22:30:23.752Z,3.26
2022-12-01T22:32:58.351Z,3.21
2022-12-01T22:35:31.483Z,3.20
2022-12-01T22:38:17.178Z,3.17
2022-12-01T22:40:55.619Z,3.15
2022-12-01T22:43:27.478Z,3.13
2022-12-01T22:46:07.196Z,3.14
2022-12-01T22:48:40.234Z,3.15
2022-12-01T22:51:25.659Z,3.14
2022-12-01T22:54:01.018Z,3.15
2022-12-01T22:56:39.838Z,3.15
2022-12-01T22:59:22.700Z,3.16
2022-12-01T23:01:56.496Z,3.17
2022-12-01T23:04:27.198Z,3.15
2022-12-01T23:07:00.362Z,3.12
2022-12-01T23:09:35.935Z,3.10
2022-12-01T23:12:24.983Z,3.11
2022-12-01T23:14:55.984Z,3.11
2022-12-01T23:17:34.190Z,3.11
2022-12-01T23:20:26.042Z,3.12
2022-12-01T23:22:56.099Z,3.13
2022-12-01T23:25:25.456Z,3.13
2022-12-01T23:27:56.000Z,3.14
2022-12-01T23:30:24.298Z,3.09
2022-12-01T23:33:01.871Z,3.03
2022-12-01T23:35:31.141Z,2.98
2022-12-01T23:37:59.150Z,2.98
2022-12-01T23:40:35.447Z,3.00
2022-12-01T23:43:15.659Z,3.04
2022-12-01T23:45:44.342Z,3.12
2022-12-01T23:48:19.305Z,3.23
2022-12-01T23:50:52.170Z,3.34
2022-12-01T23:53:30.762Z,3.41
2022-12-01T23:56:06.673Z,3.37
2022-12-01T23:58:34.706Z,3.29
